createdAt,value
2023-02-12T00:01:29.276Z,2.43
2023-02-12T00:03:58.046Z,2.45
2023-02-12T00:06:26.895Z,2.47
2023-02-12T00:08:55.770Z,2.50
2023-02-12T00:11:25.933Z,2.51
2023-02-12T00:13:54.374Z,2.51
2023-02-12T00:16:27.011Z,2.49
2023-02-12T00:18:56.283Z,2.46
2023-02-12T00:21:24.699Z,2.46
2023-02-12T00:23:53.276Z,2.47
2023-02-12T00:26:21.910Z,2.50
2023-02-12T00:28:51.072Z,2.53
2023-02-12T00:31:22.113Z,2.57
2023-02-12T00:33:50.955Z,2.60
2023-02-12T00:36:21.683Z,2.58
2023-02-12T00:38:51.827Z,2.59
2023-02-12T00:41:20.241Z,2.60
2023-02-12T00:43:48.977Z,2.63
2023-02-12T00:46:17.319Z,2.64
2023-02-12T00:48:46.868Z,2.67
2023-02-12T00:51:15.302Z,2.66
2023-02-12T00:53:44.126Z,2.69
2023-02-12T00:56:12.611Z,2.71
2023-02-12T00:58:41.688Z,2.71
2023-02-12T01:01:09.831Z,2.71
2023-02-12T01:03:39.194Z,2.73
2023-02-12T01:06:07.582Z,2.77
2023-02-12T01:08:36.928Z,2.81
2023-02-12T01:11:05.965Z,2.88
2023-02-12T01:13:37.456Z,2.87
2023-02-12T01:16:16.665Z,2.88
2023-02-12T01:18:45.202Z,2.88
2023-02-12T01:21:18.371Z,2.89
2023-02-12T01:23:47.364Z,2.89
2023-02-12T01:26:15.917Z,2.92
2023-02-12T01:28:45.267Z,2.95
2023-02-12T01:31:15.673Z,2.95
2023-02-12T01:33:44.340Z,2.96
2023-02-12T01:36:12.420Z,3.00
2023-02-12T01:38:41.125Z,3.03
2023-02-12T01:41:12.431Z,3.05
2023-02-12T01:43:41.211Z,3.01
2023-02-12T01:46:12.242Z,2.99
2023-02-12T01:48:42.572Z,3.01
2023-02-12T01:51:13.174Z,2.99
2023-02-12T01:53:50.296Z,2.98
2023-02-12T01:56:18.429Z,2.97
2023-02-12T01:58:46.796Z,2.96
2023-02-12T02:01:31.214Z,2.95
2023-02-12T02:04:06.954Z,2.95
2023-02-12T02:06:56.292Z,2.97
2023-02-12T02:09:24.740Z,2.97
2023-02-12T02:12:13.432Z,2.96
2023-02-12T02:14:41.653Z,2.99
2023-02-12T02:17:31.618Z,3.01
2023-02-12T02:20:03.919Z,2.98
2023-02-12T02:22:44.708Z,2.95
2023-02-12T02:25:28.409Z,2.92
2023-02-12T02:28:21.802Z,2.90
2023-02-12T02:30:58.162Z,2.86
2023-02-12T02:33:42.404Z,2.80
2023-02-12T02:36:47.944Z,2.80
2023-02-12T02:39:41.341Z,2.80
2023-02-12T02:42:16.900Z,2.80
2023-02-12T02:44:54.397Z,2.77
2023-02-12T02:47:26.311Z,2.71
2023-02-12T02:49:59.655Z,2.70
2023-02-12T02:52:41.566Z,2.68
2023-02-12T02:55:09.970Z,2.67
2023-02-12T02:57:59.033Z,2.59
2023-02-12T03:00:40.107Z,2.44
2023-02-12T03:03:22.725Z,2.31
2023-02-12T03:05:53.418Z,2.24
2023-02-12T03:08:34.406Z,2.23
2023-02-12T03:11:13.006Z,2.16
2023-02-12T03:13:50.376Z,2.13
2023-02-12T03:16:22.758Z,2.10
2023-02-12T03:19:15.463Z,2.00
2023-02-12T03:21:49.595Z,2.01
2023-02-12T03:24:29.691Z,1.91
2023-02-12T03:27:18.021Z,1.90
2023-02-12T03:29:46.577Z,1.87
2023-02-12T03:32:36.564Z,1.84
2023-02-12T03:35:21.374Z,1.83
2023-02-12T03:38:08.406Z,1.78
2023-02-12T03:40:42.037Z,1.74
2023-02-12T03:43:12.877Z,1.71
2023-02-12T03:46:16.141Z,1.73
2023-02-12T03:48:44.164Z,1.66
2023-02-12T03:51:22.718Z,1.63
2023-02-12T03:53:50.904Z,1.55
2023-02-12T03:56:22.891Z,1.50
2023-02-12T03:58:50.964Z,1.39
2023-02-12T04:01:19.201Z,1.35
2023-02-12T04:03:47.385Z,1.35
2023-02-12T04:06:26.193Z,1.35
2023-02-12T04:08:56.596Z,1.31
2023-02-12T04:11:41.051Z,1.26
2023-02-12T04:14:21.826Z,1.18
2023-02-12T04:16:58.496Z,1.15
2023-02-12T04:19:56.090Z,1.13
2023-02-12T04:22:55.881Z,1.09
2023-02-12T04:25:32.654Z,1.07
2023-02-12T04:28:04.714Z,0.95
2023-02-12T04:31:01.873Z,0.92
2023-02-12T04:33:42.899Z,0.84
2023-02-12T04:36:21.925Z,0.76
2023-02-12T04:38:53.501Z,0.66
2023-02-12T04:41:22.530Z,0.56
2023-02-12T04:43:50.729Z,0.51
2023-02-12T04:46:19.270Z,0.48
2023-02-12T04:48:58.670Z,0.40
2023-02-12T04:51:26.864Z,0.34
2023-02-12T04:53:54.909Z,0.24
2023-02-12T04:56:23.119Z,0.24
2023-02-12T04:58:51.275Z,0.21
2023-02-12T05:01:19.484Z,0.13
2023-02-12T05:03:47.743Z,0.11
2023-02-12T05:06:16.113Z,0.07
2023-02-12T05:08:44.696Z,0.02
2023-02-12T05:11:14.410Z,0.04
2023-02-12T05:13:42.696Z,0.03
2023-02-12T05:16:10.796Z,-0.01
2023-02-12T05:18:39.125Z,-0.02
2023-02-12T05:21:07.942Z,0.00
2023-02-12T05:23:37.762Z,-0.02
2023-02-12T05:26:11.657Z,-0.07
2023-02-12T05:28:39.931Z,-0.07
2023-02-12T05:31:10.101Z,-0.08
2023-02-12T05:33:38.269Z,-0.08
2023-02-12T05:36:14.836Z,-0.11
2023-02-12T05:38:43.017Z,-0.08
2023-02-12T05:41:13.290Z,-0.00
2023-02-12T05:43:41.878Z,-0.01
2023-02-12T05:46:10.162Z,0.06
2023-02-12T05:48:39.250Z,0.15
2023-02-12T05:51:18.106Z,0.21
2023-02-12T05:53:46.660Z,0.24
2023-02-12T05:56:22.442Z,0.28
2023-02-12T05:58:59.256Z,0.32
2023-02-12T06:01:46.177Z,0.38
2023-02-12T06:04:17.069Z,0.42
2023-02-12T06:06:45.303Z,0.43
2023-02-12T06:09:13.867Z,0.41
2023-02-12T06:11:42.100Z,0.42
2023-02-12T06:14:13.174Z,0.36
2023-02-12T06:16:49.116Z,0.30
2023-02-12T06:19:19.274Z,0.28
2023-02-12T06:21:47.678Z,0.19
2023-02-12T06:24:16.475Z,0.17
2023-02-12T06:26:45.647Z,0.20
2023-02-12T06:29:14.702Z,0.15
2023-02-12T06:31:43.013Z,0.19
2023-02-12T06:34:12.918Z,0.20
2023-02-12T06:36:42.306Z,0.21
2023-02-12T06:39:10.877Z,0.20
2023-02-12T06:41:39.139Z,0.18
2023-02-12T06:44:07.777Z,0.19
2023-02-12T06:46:36.221Z,0.24
2023-02-12T06:49:05.066Z,0.26
2023-02-12T06:51:33.995Z,0.27
2023-02-12T06:54:02.224Z,0.32
2023-02-12T06:56:30.301Z,0.33
2023-02-12T06:58:59.669Z,0.34
2023-02-12T07:01:29.512Z,0.40
2023-02-12T07:03:59.376Z,0.46
2023-02-12T07:06:27.886Z,0.48
2023-02-12T07:08:57.462Z,0.57
2023-02-12T07:11:26.737Z,0.66
2023-02-12T07:13:55.360Z,0.73
2023-02-12T07:16:23.631Z,0.77
2023-02-12T07:18:55.759Z,0.84
2023-02-12T07:21:23.848Z,0.83
2023-02-12T07:23:53.132Z,0.76
2023-02-12T07:26:23.409Z,0.79
2023-02-12T07:28:51.709Z,0.80
2023-02-12T07:31:22.179Z,0.70
2023-02-12T07:33:56.208Z,0.68
2023-02-12T07:36:26.107Z,0.64
2023-02-12T07:38:55.327Z,0.64
2023-02-12T07:41:25.762Z,0.58
2023-02-12T07:44:00.130Z,0.57
2023-02-12T07:46:30.693Z,0.61
2023-02-12T07:48:59.745Z,0.66
2023-02-12T07:51:29.372Z,0.73
2023-02-12T07:53:57.601Z,0.80
2023-02-12T07:56:32.758Z,0.73
2023-02-12T07:59:05.856Z,0.78
2023-02-12T08:01:37.454Z,0.84
2023-02-12T08:04:07.828Z,0.87
2023-02-12T08:06:37.837Z,0.89
2023-02-12T08:09:08.382Z,0.92
2023-02-12T08:11:37.527Z,1.01
2023-02-12T08:14:05.636Z,1.07
2023-02-12T08:16:39.281Z,1.20
2023-02-12T08:19:17.905Z,1.33
2023-02-12T08:21:50.167Z,1.43
2023-02-12T08:24:18.899Z,1.40
2023-02-12T08:26:48.269Z,1.41
2023-02-12T08:29:18.981Z,1.40
2023-02-12T08:31:49.556Z,1.37
2023-02-12T08:34:19.771Z,1.38
2023-02-12T08:36:48.926Z,1.37
2023-02-12T08:39:18.047Z,1.35
2023-02-12T08:41:47.085Z,1.29
2023-02-12T08:44:15.600Z,1.22
2023-02-12T08:46:46.938Z,1.15
2023-02-12T08:49:17.181Z,1.15
2023-02-12T08:51:48.841Z,1.22
2023-02-12T08:54:19.895Z,1.22
2023-02-12T08:56:50.278Z,1.19
2023-02-12T08:59:18.726Z,1.11
2023-02-12T09:01:49.795Z,1.11
2023-02-12T09:04:21.994Z,1.16
2023-02-12T09:06:50.365Z,1.21
2023-02-12T09:09:20.603Z,1.26
2023-02-12T09:11:49.568Z,1.31
2023-02-12T09:14:18.966Z,1.40
2023-02-12T09:16:47.521Z,1.48
2023-02-12T09:19:15.806Z,1.56
2023-02-12T09:21:43.977Z,1.62
2023-02-12T09:24:12.163Z,1.64
2023-02-12T09:26:40.633Z,1.58
2023-02-12T09:29:09.696Z,1.54
2023-02-12T09:31:38.052Z,1.57
2023-02-12T09:34:06.827Z,1.57
2023-02-12T09:36:36.601Z,1.62
2023-02-12T09:39:05.724Z,1.67
2023-02-12T09:42:12.003Z,1.69
2023-02-12T09:44:49.917Z,1.73
2023-02-12T09:47:44.566Z,1.79
2023-02-12T09:50:30.464Z,1.79
2023-02-12T09:52:59.373Z,1.79
2023-02-12T09:55:32.638Z,1.88
2023-02-12T09:58:01.412Z,1.91
2023-02-12T10:00:31.925Z,1.90
2023-02-12T10:03:05.654Z,1.90
2023-02-12T10:05:56.971Z,1.88
2023-02-12T10:08:50.757Z,1.89
2023-02-12T10:11:48.939Z,1.98
2023-02-12T10:14:37.987Z,2.08
2023-02-12T10:17:12.450Z,2.17
2023-02-12T10:19:53.212Z,2.22
2023-02-12T10:23:02.807Z,2.27
2023-02-12T10:25:41.314Z,2.19
2023-02-12T10:28:14.239Z,2.14
2023-02-12T10:30:47.852Z,2.08
2023-02-12T10:33:19.105Z,2.11
2023-02-12T10:35:50.025Z,2.14
2023-02-12T10:38:20.596Z,2.28
2023-02-12T10:40:50.468Z,2.37
2023-02-12T10:43:18.732Z,2.43
2023-02-12T10:45:47.268Z,2.50
2023-02-12T10:48:23.461Z,2.54
2023-02-12T10:51:10.261Z,2.53
2023-02-12T10:53:40.367Z,2.57
2023-02-12T10:56:18.342Z,2.58
2023-02-12T10:58:55.175Z,2.57
2023-02-12T11:01:27.550Z,2.50
2023-02-12T11:03:57.062Z,2.50
2023-02-12T11:06:27.960Z,2.53
2023-02-12T11:08:57.123Z,2.63
2023-02-12T11:11:28.370Z,2.74
2023-02-12T11:13:56.812Z,2.81
2023-02-12T11:16:52.328Z,2.75
2023-02-12T11:19:25.575Z,2.76
2023-02-12T11:22:06.586Z,2.84
2023-02-12T11:24:36.506Z,2.93
2023-02-12T11:27:16.803Z,2.93
2023-02-12T11:29:49.083Z,2.93
2023-02-12T11:32:19.546Z,2.89
2023-02-12T11:35:07.151Z,2.87
2023-02-12T11:37:37.274Z,2.87
2023-02-12T11:40:06.753Z,2.81
2023-02-12T11:42:35.752Z,2.71
2023-02-12T11:45:04.326Z,2.57
2023-02-12T11:47:34.397Z,2.53
2023-02-12T11:50:08.465Z,2.57
2023-02-12T11:52:37.603Z,2.60
2023-02-12T11:55:20.749Z,2.63
2023-02-12T11:57:51.159Z,2.72
2023-02-12T12:00:47.120Z,2.85
2023-02-12T12:03:30.541Z,2.96
2023-02-12T12:06:29.957Z,2.97
2023-02-12T12:09:14.897Z,2.98
2023-02-12T12:12:05.133Z,2.95
2023-02-12T12:15:01.102Z,2.98
2023-02-12T12:18:08.654Z,3.03
2023-02-12T12:21:01.933Z,3.02
2023-02-12T12:23:37.804Z,3.02
2023-02-12T12:26:13.317Z,2.96
2023-02-12T12:28:46.540Z,2.98
2023-02-12T12:31:33.744Z,3.01
2023-02-12T12:34:28.261Z,3.05
2023-02-12T12:37:08.608Z,3.09
2023-02-12T12:39:55.681Z,3.05
2023-02-12T12:42:33.199Z,3.00
2023-02-12T12:45:08.751Z,3.04
2023-02-12T12:47:48.782Z,3.06
2023-02-12T12:50:26.210Z,3.08
2023-02-12T12:52:57.262Z,3.11
2023-02-12T12:55:36.710Z,3.08
2023-02-12T12:58:18.167Z,2.98
2023-02-12T13:01:01.041Z,3.03
2023-02-12T13:04:07.578Z,3.05
2023-02-12T13:06:43.399Z,3.00
2023-02-12T13:09:43.690Z,2.82
2023-02-12T13:12:31.440Z,2.85
2023-02-12T13:15:05.840Z,2.83
2023-02-12T13:17:46.143Z,2.82
2023-02-12T13:20:31.021Z,2.81
2023-02-12T13:23:17.956Z,2.78
2023-02-12T13:26:04.499Z,2.74
2023-02-12T13:28:37.956Z,2.76
2023-02-12T13:31:24.893Z,2.65
2023-02-12T13:33:59.909Z,2.70
2023-02-12T13:36:28.321Z,2.61
2023-02-12T13:38:57.481Z,2.63
2023-02-12T13:41:25.560Z,2.67
2023-02-12T13:44:00.037Z,2.76
2023-02-12T13:46:56.171Z,2.93
2023-02-12T13:49:52.962Z,3.14
2023-02-12T13:52:36.318Z,3.30
2023-02-12T13:55:16.867Z,3.45
2023-02-12T13:57:44.988Z,3.63
2023-02-12T14:00:49.993Z,3.69
2023-02-12T14:03:24.196Z,3.42
2023-02-12T14:06:16.951Z,3.14
2023-02-12T14:08:51.946Z,2.93
2023-02-12T14:11:22.586Z,2.80
2023-02-12T14:14:00.587Z,2.66
2023-02-12T14:16:29.209Z,2.51
2023-02-12T14:19:39.255Z,2.38
2023-02-12T14:22:15.185Z,2.27
2023-02-12T14:24:53.522Z,2.21
2023-02-12T14:27:42.934Z,2.17
2023-02-12T14:30:11.728Z,2.08
2023-02-12T14:32:58.215Z,2.00
2023-02-12T14:35:26.868Z,1.94
2023-02-12T14:37:58.930Z,1.88
2023-02-12T14:40:31.948Z,1.82
2023-02-12T14:43:23.855Z,1.77
2023-02-12T14:45:52.288Z,1.70
2023-02-12T14:48:46.856Z,1.68
2023-02-12T14:51:19.669Z,1.67
2023-02-12T14:53:47.909Z,1.64
2023-02-12T14:56:20.322Z,1.63
2023-02-12T14:58:48.961Z,1.58
2023-02-12T15:01:17.573Z,1.52
2023-02-12T15:03:51.036Z,1.49
2023-02-12T15:06:22.458Z,1.46
2023-02-12T15:08:52.195Z,1.39
2023-02-12T15:11:39.201Z,1.34
2023-02-12T15:14:18.954Z,1.27
2023-02-12T15:17:06.157Z,1.19
2023-02-12T15:20:02.234Z,1.11
2023-02-12T15:22:36.030Z,1.05
2023-02-12T15:25:14.877Z,0.96
2023-02-12T15:27:44.688Z,0.91
2023-02-12T15:30:26.243Z,0.89
2023-02-12T15:33:08.470Z,0.87
2023-02-12T15:35:38.394Z,0.82
2023-02-12T15:38:08.008Z,0.81
2023-02-12T15:40:37.055Z,0.81
2023-02-12T15:43:06.968Z,0.76
2023-02-12T15:45:37.026Z,0.70
2023-02-12T15:48:14.072Z,0.66
2023-02-12T15:51:08.586Z,0.63
2023-02-12T15:53:38.855Z,0.61
2023-02-12T15:56:15.171Z,0.58
2023-02-12T15:58:52.675Z,0.52
2023-02-12T16:01:26.108Z,0.51
2023-02-12T16:03:57.122Z,0.51
2023-02-12T16:06:26.938Z,0.50
2023-02-12T16:08:59.880Z,0.47
2023-02-12T16:11:29.787Z,0.39
2023-02-12T16:14:05.781Z,0.32
2023-02-12T16:16:50.861Z,0.32
2023-02-12T16:19:20.159Z,0.28
2023-02-12T16:21:56.263Z,0.24
2023-02-12T16:24:32.727Z,0.21
2023-02-12T16:27:24.662Z,0.20
2023-02-12T16:29:55.113Z,0.15
2023-02-12T16:32:33.117Z,0.15
2023-02-12T16:35:05.412Z,0.12
2023-02-12T16:37:36.692Z,0.08
2023-02-12T16:40:15.607Z,0.05
2023-02-12T16:42:48.499Z,-0.00
2023-02-12T16:45:29.871Z,-0.07
2023-02-12T16:48:04.213Z,-0.13
2023-02-12T16:50:34.313Z,-0.15
2023-02-12T16:53:47.570Z,-0.20
2023-02-12T16:56:18.390Z,-0.23
2023-02-12T16:58:48.519Z,-0.27
2023-02-12T17:01:28.621Z,-0.32
2023-02-12T17:03:57.919Z,-0.33
2023-02-12T17:06:28.660Z,-0.33
2023-02-12T17:08:59.972Z,-0.35
2023-02-12T17:11:28.373Z,-0.36
2023-02-12T17:13:56.844Z,-0.36
2023-02-12T17:16:30.660Z,-0.38
2023-02-12T17:19:06.849Z,-0.41
2023-02-12T17:21:39.338Z,-0.43
2023-02-12T17:24:24.828Z,-0.46
2023-02-12T17:26:54.173Z,-0.48
2023-02-12T17:29:23.566Z,-0.50
2023-02-12T17:31:56.324Z,-0.53
2023-02-12T17:34:24.707Z,-0.56
2023-02-12T17:36:53.411Z,-0.57
2023-02-12T17:39:21.905Z,-0.57
2023-02-12T17:41:51.734Z,-0.57
2023-02-12T17:44:20.193Z,-0.59
2023-02-12T17:46:48.414Z,-0.60
2023-02-12T17:49:16.653Z,-0.62
2023-02-12T17:51:48.522Z,-0.63
2023-02-12T17:54:17.844Z,-0.66
2023-02-12T17:56:46.397Z,-0.70
2023-02-12T17:59:14.758Z,-0.75
2023-02-12T18:01:43.177Z,-0.76
2023-02-12T18:04:14.223Z,-0.80
2023-02-12T18:06:42.307Z,-0.89
2023-02-12T18:09:10.351Z,-0.86
2023-02-12T18:11:40.602Z,-0.84
2023-02-12T18:14:11.098Z,-0.83
2023-02-12T18:16:41.950Z,-0.81
2023-02-12T18:19:10.173Z,-0.82
2023-02-12T18:21:38.934Z,-0.81
2023-02-12T18:24:07.704Z,-0.80
2023-02-12T18:26:35.836Z,-0.79
2023-02-12T18:29:04.092Z,-0.82
2023-02-12T18:31:33.220Z,-0.83
2023-02-12T18:34:02.312Z,-0.84
2023-02-12T18:36:30.624Z,-0.86
2023-02-12T18:39:01.440Z,-0.88
2023-02-12T18:41:31.550Z,-0.89
2023-02-12T18:43:59.877Z,-0.90
2023-02-12T18:46:29.586Z,-0.90
2023-02-12T18:48:58.475Z,-0.91
2023-02-12T18:51:29.069Z,-0.91
2023-02-12T18:54:03.047Z,-0.93
2023-02-12T18:56:39.106Z,-0.95
2023-02-12T18:59:11.714Z,-0.99
2023-02-12T19:01:40.248Z,-0.99
2023-02-12T19:04:11.622Z,-0.99
2023-02-12T19:06:41.135Z,-0.99
2023-02-12T19:09:11.382Z,-0.99
2023-02-12T19:11:40.055Z,-1.02
2023-02-12T19:14:08.203Z,-1.04
2023-02-12T19:16:36.586Z,-1.05
2023-02-12T19:19:05.584Z,-1.08
2023-02-12T19:21:34.497Z,-1.08
2023-02-12T19:24:03.657Z,-1.08
2023-02-12T19:26:33.385Z,-1.09
2023-02-12T19:29:02.014Z,-1.10
2023-02-12T19:31:32.800Z,-1.12
2023-02-12T19:34:04.105Z,-1.12
2023-02-12T19:36:33.731Z,-1.16
2023-02-12T19:39:03.688Z,-1.17
2023-02-12T19:41:32.967Z,-1.18
2023-02-12T19:44:01.848Z,-1.18
2023-02-12T19:46:31.182Z,-1.16
2023-02-12T19:49:00.522Z,-1.14
2023-02-12T19:51:30.043Z,-1.12
2023-02-12T19:54:02.286Z,-1.10
2023-02-12T19:56:31.194Z,-1.06
2023-02-12T19:58:59.952Z,-1.02
2023-02-12T20:01:28.283Z,-0.99
2023-02-12T20:03:57.228Z,-0.96
2023-02-12T20:06:28.823Z,-0.92
2023-02-12T20:08:57.772Z,-0.90
2023-02-12T20:11:28.960Z,-0.88
2023-02-12T20:14:01.495Z,-0.88
2023-02-12T20:16:36.871Z,-0.89
2023-02-12T20:19:17.600Z,-0.90
2023-02-12T20:21:46.324Z,-0.90
2023-02-12T20:24:14.659Z,-0.92
2023-02-12T20:26:42.994Z,-0.93
2023-02-12T20:29:11.054Z,-0.95
2023-02-12T20:31:39.634Z,-0.98
2023-02-12T20:34:09.088Z,-1.00
2023-02-12T20:36:39.110Z,-1.03
2023-02-12T20:39:10.835Z,-1.06
2023-02-12T20:41:39.727Z,-1.08
2023-02-12T20:44:09.057Z,-1.10
2023-02-12T20:46:42.603Z,-1.13
2023-02-12T20:49:13.043Z,-1.16
2023-02-12T20:51:41.766Z,-1.18
2023-02-12T20:54:10.276Z,-1.17
2023-02-12T20:56:38.802Z,-1.18
2023-02-12T20:59:07.108Z,-1.21
2023-02-12T21:01:37.753Z,-1.24
2023-02-12T21:04:09.329Z,-1.26
2023-02-12T21:06:40.308Z,-1.31
2023-02-12T21:09:09.971Z,-1.35
2023-02-12T21:11:42.315Z,-1.37
2023-02-12T21:14:21.968Z,-1.38
2023-02-12T21:16:52.639Z,-1.40
2023-02-12T21:19:20.863Z,-1.38
2023-02-12T21:21:49.674Z,-1.37
2023-02-12T21:24:21.780Z,-1.37
2023-02-12T21:26:51.871Z,-1.39
2023-02-12T21:29:20.752Z,-1.38
2023-02-12T21:31:50.366Z,-1.35
2023-02-12T21:34:21.196Z,-1.30
2023-02-12T21:36:49.672Z,-1.23
2023-02-12T21:39:27.469Z,-1.17
2023-02-12T21:42:00.283Z,-1.12
2023-02-12T21:44:29.004Z,-1.10
2023-02-12T21:46:57.830Z,-1.11
2023-02-12T21:49:28.398Z,-1.14
2023-02-12T21:52:02.240Z,-1.17
2023-02-12T21:54:31.381Z,-1.20
2023-02-12T21:56:59.856Z,-1.22
2023-02-12T21:59:30.712Z,-1.24
2023-02-12T22:02:00.810Z,-1.26
2023-02-12T22:04:32.020Z,-1.27
2023-02-12T22:07:03.571Z,-1.33
2023-02-12T22:09:34.671Z,-1.33
2023-02-12T22:12:02.814Z,-1.36
2023-02-12T22:14:31.425Z,-1.35
2023-02-12T22:17:00.168Z,-1.39
2023-02-12T22:19:28.415Z,-1.36
2023-02-12T22:21:56.624Z,-1.35
2023-02-12T22:24:24.704Z,-1.36
2023-02-12T22:26:56.042Z,-1.38
2023-02-12T22:29:25.369Z,-1.37
2023-02-12T22:31:53.686Z,-1.37
2023-02-12T22:34:22.359Z,-1.34
2023-02-12T22:36:50.560Z,-1.30
2023-02-12T22:39:18.915Z,-1.28
2023-02-12T22:41:47.103Z,-1.28
2023-02-12T22:44:16.161Z,-1.30
2023-02-12T22:46:44.824Z,-1.34
2023-02-12T22:49:13.445Z,-1.43
2023-02-12T22:51:41.604Z,-1.46
2023-02-12T22:54:15.005Z,-1.48
2023-02-12T22:56:43.429Z,-1.51
2023-02-12T22:59:12.215Z,-1.55
2023-02-12T23:01:41.549Z,-1.57
2023-02-12T23:04:15.581Z,-1.59
2023-02-12T23:06:43.928Z,-1.60
2023-02-12T23:09:14.135Z,-1.60
2023-02-12T23:11:42.732Z,-1.59
2023-02-12T23:14:12.228Z,-1.55
2023-02-12T23:16:42.075Z,-1.53
2023-02-12T23:19:11.529Z,-1.47
2023-02-12T23:21:40.139Z,-1.45
2023-02-12T23:24:11.905Z,-1.44
2023-02-12T23:26:40.444Z,-1.44
2023-02-12T23:29:08.878Z,-1.46
2023-02-12T23:31:38.261Z,-1.50
2023-02-12T23:34:06.857Z,-1.56
2023-02-12T23:36:34.931Z,-1.60
2023-02-12T23:39:05.993Z,-1.63
2023-02-12T23:41:34.544Z,-1.68
2023-02-12T23:44:03.849Z,-1.69
2023-02-12T23:46:32.321Z,-1.71
2023-02-12T23:49:01.527Z,-1.74
2023-02-12T23:51:30.635Z,-1.74
2023-02-12T23:53:58.948Z,-1.75
2023-02-12T23:56:27.255Z,-1.74
2023-02-12T23:58:57.495Z,-1.73
